sensor_id;sensor_type;location;lat;lon;timestamp;pressure;altitude;pressure_sealevel;temperature;humidity
55590;BME280;41452;42.780;23.116;2022-11-15T00:01:09;94897.47;;;1.41;90.04
55590;BME280;41452;42.780;23.116;2022-11-15T00:03:39;94910.91;;;1.53;89.89
55590;BME280;41452;42.780;23.116;2022-11-15T00:06:04;94916.19;;;1.27;90.67
55590;BME280;41452;42.780;23.116;2022-11-15T00:08:31;94912.97;;;1.25;90.76
55590;BME280;41452;42.780;23.116;2022-11-15T00:11:01;94896.28;;;1.11;91.00
55590;BME280;41452;42.780;23.116;2022-11-15T00:13:27;94915.34;;;1.10;91.33
55590;BME280;41452;42.780;23.116;2022-11-15T00:15:56;94909.00;;;0.96;91.79
55590;BME280;41452;42.780;23.116;2022-11-15T00:18:22;94900.56;;;0.94;91.71
55590;BME280;41452;42.780;23.116;2022-11-15T00:20:47;94913.88;;;1.07;91.62
55590;BME280;41452;42.780;23.116;2022-11-15T00:23:12;94907.91;;;1.15;91.47
55590;BME280;41452;42.780;23.116;2022-11-15T00:25:38;94914.53;;;1.09;90.86
55590;BME280;41452;42.780;23.116;2022-11-15T00:28:03;94915.53;;;1.17;90.91
55590;BME280;41452;42.780;23.116;2022-11-15T00:30:29;94902.56;;;1.00;91.44
55590;BME280;41452;42.780;23.116;2022-11-15T00:32:55;94915.34;;;1.10;91.53
55590;BME280;41452;42.780;23.116;2022-11-15T00:35:21;94907.56;;;1.10;91.88
55590;BME280;41452;42.780;23.116;2022-11-15T00:37:46;94913.34;;;0.95;91.95
55590;BME280;41452;42.780;23.116;2022-11-15T00:40:13;94910.13;;;0.93;91.99
55590;BME280;41452;42.780;23.116;2022-11-15T00:42:39;94907.50;;;0.85;91.94
55590;BME280;41452;42.780;23.116;2022-11-15T00:45:05;94907.38;;;0.95;92.43
55590;BME280;41452;42.780;23.116;2022-11-15T00:47:30;94902.84;;;0.97;92.16
55590;BME280;41452;42.780;23.116;2022-11-15T00:49:55;94901.06;;;0.98;91.62
55590;BME280;41452;42.780;23.116;2022-11-15T00:52:21;94902.91;;;1.05;91.93
55590;BME280;41452;42.780;23.116;2022-11-15T00:54:46;94893.56;;;1.29;91.50
55590;BME280;41452;42.780;23.116;2022-11-15T00:57:11;94883.31;;;1.03;91.13
55590;BME280;41452;42.780;23.116;2022-11-15T00:59:37;94895.75;;;0.91;91.36
55590;BME280;41452;42.780;23.116;2022-11-15T01:02:02;94892.88;;;1.10;91.09
55590;BME280;41452;42.780;23.116;2022-11-15T01:04:28;94894.50;;;1.03;91.27
55590;BME280;41452;42.780;23.116;2022-11-15T01:06:53;94869.84;;;0.83;91.43
55590;BME280;41452;42.780;23.116;2022-11-15T01:09:18;94891.63;;;1.23;90.88
55590;BME280;41452;42.780;23.116;2022-11-15T01:11:44;94901.16;;;1.22;90.24
55590;BME280;41452;42.780;23.116;2022-11-15T01:14:09;94864.34;;;0.78;91.05
55590;BME280;41452;42.780;23.116;2022-11-15T01:16:34;94904.41;;;0.73;91.65
55590;BME280;41452;42.780;23.116;2022-11-15T01:19:00;94904.94;;;0.93;92.10
55590;BME280;41452;42.780;23.116;2022-11-15T01:21:26;94831.31;;;0.63;92.29
55590;BME280;41452;42.780;23.116;2022-11-15T01:23:55;94878.47;;;1.00;91.37
55590;BME280;41452;42.780;23.116;2022-11-15T01:26:21;94880.38;;;0.89;91.64
55590;BME280;41452;42.780;23.116;2022-11-15T01:28:47;94880.88;;;1.01;91.60
55590;BME280;41452;42.780;23.116;2022-11-15T01:31:15;94831.03;;;0.74;90.75
55590;BME280;41452;42.780;23.116;2022-11-15T01:33:41;94883.75;;;0.90;90.88
55590;BME280;41452;42.780;23.116;2022-11-15T01:36:09;94863.00;;;0.65;91.21
55590;BME280;41452;42.780;23.116;2022-11-15T01:38:36;94862.41;;;0.37;92.21
55590;BME280;41452;42.780;23.116;2022-11-15T01:41:01;94876.84;;;0.56;93.52
55590;BME280;41452;42.780;23.116;2022-11-15T01:43:30;94885.25;;;0.58;93.28
55590;BME280;41452;42.780;23.116;2022-11-15T01:46:02;94865.22;;;0.52;92.77
55590;BME280;41452;42.780;23.116;2022-11-15T01:48:34;94876.13;;;0.72;92.00
55590;BME280;41452;42.780;23.116;2022-11-15T01:51:02;94878.59;;;0.90;92.36
55590;BME280;41452;42.780;23.116;2022-11-15T01:53:31;94876.84;;;0.99;90.86
55590;BME280;41452;42.780;23.116;2022-11-15T01:55:59;94880.72;;;0.94;90.94
55590;BME280;41452;42.780;23.116;2022-11-15T01:58:26;94882.91;;;0.73;91.77
55590;BME280;41452;42.780;23.116;2022-11-15T02:00:52;94873.97;;;0.67;92.06
55590;BME280;41452;42.780;23.116;2022-11-15T02:03:17;94873.41;;;0.90;92.41
55590;BME280;41452;42.780;23.116;2022-11-15T02:05:44;94866.66;;;0.97;91.68
55590;BME280;41452;42.780;23.116;2022-11-15T02:08:10;94869.91;;;1.07;90.99
55590;BME280;41452;42.780;23.116;2022-11-15T02:10:47;94868.25;;;0.90;91.33
55590;BME280;41452;42.780;23.116;2022-11-15T02:13:14;94853.38;;;0.84;91.16
55590;BME280;41452;42.780;23.116;2022-11-15T02:16:04;94873.88;;;0.77;91.16
55590;BME280;41452;42.780;23.116;2022-11-15T02:18:37;94872.25;;;0.76;91.66
55590;BME280;41452;42.780;23.116;2022-11-15T02:24:07;94862.03;;;0.66;91.66
55590;BME280;41452;42.780;23.116;2022-11-15T02:32:47;94837.63;;;0.61;92.06
55590;BME280;41452;42.780;23.116;2022-11-15T02:35:28;94863.78;;;0.57;92.42
55590;BME280;41452;42.780;23.116;2022-11-15T02:40:38;94857.47;;;0.60;92.35
55590;BME280;41452;42.780;23.116;2022-11-15T02:43:12;94863.50;;;0.69;91.93
55590;BME280;41452;42.780;23.116;2022-11-15T02:46:03;94862.38;;;0.71;92.06
55590;BME280;41452;42.780;23.116;2022-11-15T02:48:32;94863.00;;;0.57;92.03
55590;BME280;41452;42.780;23.116;2022-11-15T02:50:59;94868.91;;;0.84;91.25
55590;BME280;41452;42.780;23.116;2022-11-15T02:53:25;94811.38;;;0.39;91.75
55590;BME280;41452;42.780;23.116;2022-11-15T02:55:53;94860.41;;;0.65;91.61
55590;BME280;41452;42.780;23.116;2022-11-15T03:01:28;94864.81;;;0.73;92.36
55590;BME280;41452;42.780;23.116;2022-11-15T03:07:08;94852.84;;;0.72;91.69
55590;BME280;41452;42.780;23.116;2022-11-15T03:09:50;94853.81;;;0.71;91.21
55590;BME280;41452;42.780;23.116;2022-11-15T03:15:14;94829.88;;;0.61;91.53
55590;BME280;41452;42.780;23.116;2022-11-15T03:18:04;94861.53;;;0.63;91.42
55590;BME280;41452;42.780;23.116;2022-11-15T03:20:33;94854.63;;;0.71;91.79
55590;BME280;41452;42.780;23.116;2022-11-15T03:23:06;94861.75;;;0.78;91.39
55590;BME280;41452;42.780;23.116;2022-11-15T03:25:34;94854.53;;;0.89;91.62
55590;BME280;41452;42.780;23.116;2022-11-15T03:28:04;94850.81;;;1.00;90.93
55590;BME280;41452;42.780;23.116;2022-11-15T03:30:32;94822.81;;;0.79;91.40
55590;BME280;41452;42.780;23.116;2022-11-15T03:33:00;94846.72;;;0.81;92.29
55590;BME280;41452;42.780;23.116;2022-11-15T03:35:32;94835.94;;;0.86;93.64
55590;BME280;41452;42.780;23.116;2022-11-15T03:38:14;94836.25;;;0.91;93.73
55590;BME280;41452;42.780;23.116;2022-11-15T03:40:45;94837.22;;;0.90;93.98
55590;BME280;41452;42.780;23.116;2022-11-15T03:45:56;94821.09;;;0.96;93.63
55590;BME280;41452;42.780;23.116;2022-11-15T03:48:26;94829.00;;;1.11;93.59
55590;BME280;41452;42.780;23.116;2022-11-15T03:50:53;94829.81;;;1.11;93.52
55590;BME280;41452;42.780;23.116;2022-11-15T03:53:18;94796.81;;;0.81;94.55
55590;BME280;41452;42.780;23.116;2022-11-15T03:55:44;94829.94;;;0.93;94.99
55590;BME280;41452;42.780;23.116;2022-11-15T03:58:09;94787.22;;;0.65;95.51
55590;BME280;41452;42.780;23.116;2022-11-15T04:00:35;94828.16;;;0.86;96.02
55590;BME280;41452;42.780;23.116;2022-11-15T04:03:00;94823.66;;;0.96;95.52
55590;BME280;41452;42.780;23.116;2022-11-15T04:05:26;94832.25;;;1.13;94.82
55590;BME280;41452;42.780;23.116;2022-11-15T04:07:51;94808.63;;;1.08;94.59
55590;BME280;41452;42.780;23.116;2022-11-15T04:10:17;94818.66;;;1.11;94.88
55590;BME280;41452;42.780;23.116;2022-11-15T04:12:44;94819.66;;;1.18;95.25
55590;BME280;41452;42.780;23.116;2022-11-15T04:15:14;94819.00;;;1.24;95.55
55590;BME280;41452;42.780;23.116;2022-11-15T04:22:58;94782.47;;;1.19;96.60
55590;BME280;41452;42.780;23.116;2022-11-15T04:25:43;94775.34;;;1.13;96.23
55590;BME280;41452;42.780;23.116;2022-11-15T04:28:09;94816.72;;;1.29;97.57
55590;BME280;41452;42.780;23.116;2022-11-15T04:30:35;94814.63;;;1.41;97.04
55590;BME280;41452;42.780;23.116;2022-11-15T04:33:00;94813.50;;;1.44;97.35
55590;BME280;41452;42.780;23.116;2022-11-15T04:35:26;94822.06;;;1.52;97.38
55590;BME280;41452;42.780;23.116;2022-11-15T04:37:51;94821.75;;;1.47;97.23
55590;BME280;41452;42.780;23.116;2022-11-15T04:40:17;94826.44;;;1.52;97.75
55590;BME280;41452;42.780;23.116;2022-11-15T04:42:42;94818.22;;;1.57;97.12
55590;BME280;41452;42.780;23.116;2022-11-15T04:45:08;94799.13;;;1.49;97.63
55590;BME280;41452;42.780;23.116;2022-11-15T04:47:34;94825.00;;;1.66;97.13
55590;BME280;41452;42.780;23.116;2022-11-15T04:49:59;94802.31;;;1.60;97.07
55590;BME280;41452;42.780;23.116;2022-11-15T04:52:25;94803.94;;;1.52;98.19
55590;BME280;41452;42.780;23.116;2022-11-15T04:54:50;94804.94;;;1.51;98.32
55590;BME280;41452;42.780;23.116;2022-11-15T04:57:15;94823.03;;;1.76;98.12
55590;BME280;41452;42.780;23.116;2022-11-15T04:59:41;94828.38;;;1.75;99.07
55590;BME280;41452;42.780;23.116;2022-11-15T05:02:06;94793.91;;;1.58;99.04
55590;BME280;41452;42.780;23.116;2022-11-15T05:04:31;94824.47;;;1.87;98.01
55590;BME280;41452;42.780;23.116;2022-11-15T05:06:57;94799.22;;;1.81;97.67
55590;BME280;41452;42.780;23.116;2022-11-15T05:09:22;94820.56;;;1.99;98.21
55590;BME280;41452;42.780;23.116;2022-11-15T05:11:48;94812.31;;;1.96;98.32
55590;BME280;41452;42.780;23.116;2022-11-15T05:14:14;94779.81;;;1.77;98.91
55590;BME280;41452;42.780;23.116;2022-11-15T05:16:39;94806.97;;;1.97;99.06
55590;BME280;41452;42.780;23.116;2022-11-15T05:19:05;94798.53;;;1.95;98.80
55590;BME280;41452;42.780;23.116;2022-11-15T05:21:31;94780.63;;;1.85;99.25
55590;BME280;41452;42.780;23.116;2022-11-15T05:23:57;94809.69;;;2.04;99.65
55590;BME280;41452;42.780;23.116;2022-11-15T05:26:23;94807.25;;;2.11;99.83
55590;BME280;41452;42.780;23.116;2022-11-15T05:28:52;94814.06;;;2.12;100.00
55590;BME280;41452;42.780;23.116;2022-11-15T05:31:18;94821.63;;;2.21;100.00
55590;BME280;41452;42.780;23.116;2022-11-15T05:33:44;94817.47;;;2.12;100.00
55590;BME280;41452;42.780;23.116;2022-11-15T05:36:57;94809.69;;;2.04;100.00
55590;BME280;41452;42.780;23.116;2022-11-15T05:38:58;94796.78;;;1.96;100.00
55590;BME280;41452;42.780;23.116;2022-11-15T05:41:31;94812.59;;;2.17;100.00
55590;BME280;41452;42.780;23.116;2022-11-15T05:43:58;94815.13;;;2.25;100.00
55590;BME280;41452;42.780;23.116;2022-11-15T05:46:24;94822.59;;;2.28;100.00
55590;BME280;41452;42.780;23.116;2022-11-15T05:48:52;94816.09;;;2.33;100.00
55590;BME280;41452;42.780;23.116;2022-11-15T05:51:19;94823.22;;;2.39;100.00
55590;BME280;41452;42.780;23.116;2022-11-15T05:53:46;94832.91;;;2.45;100.00
55590;BME280;41452;42.780;23.116;2022-11-15T05:56:12;94835.69;;;2.43;100.00
55590;BME280;41452;42.780;23.116;2022-11-15T05:58:37;94808.78;;;2.36;100.00
55590;BME280;41452;42.780;23.116;2022-11-15T06:01:03;94830.75;;;2.57;100.00
55590;BME280;41452;42.780;23.116;2022-11-15T06:03:29;94829.31;;;2.54;100.00
55590;BME280;41452;42.780;23.116;2022-11-15T06:05:54;94820.25;;;2.50;100.00
55590;BME280;41452;42.780;23.116;2022-11-15T06:08:19;94825.41;;;2.50;100.00
55590;BME280;41452;42.780;23.116;2022-11-15T06:10:45;94813.28;;;2.51;100.00
55590;BME280;41452;42.780;23.116;2022-11-15T06:13:10;94815.66;;;2.60;100.00
55590;BME280;41452;42.780;23.116;2022-11-15T06:15:36;94815.03;;;2.58;100.00
55590;BME280;41452;42.780;23.116;2022-11-15T06:18:01;94817.94;;;2.55;100.00
55590;BME280;41452;42.780;23.116;2022-11-15T06:20:28;94814.72;;;2.53;100.00
55590;BME280;41452;42.780;23.116;2022-11-15T06:23:01;94823.00;;;2.48;100.00
55590;BME280;41452;42.780;23.116;2022-11-15T06:25:28;94825.16;;;2.37;100.00
55590;BME280;41452;42.780;23.116;2022-11-15T06:40:52;94815.91;;;3.51;100.00
55590;BME280;41452;42.780;23.116;2022-11-15T06:43:17;94799.81;;;3.33;100.00
55590;BME280;41452;42.780;23.116;2022-11-15T06:45:43;94821.06;;;3.36;100.00
55590;BME280;41452;42.780;23.116;2022-11-15T06:48:08;94818.34;;;3.30;100.00
55590;BME280;41452;42.780;23.116;2022-11-15T06:50:33;94821.66;;;3.23;100.00
55590;BME280;41452;42.780;23.116;2022-11-15T06:53:05;94818.13;;;3.16;100.00
55590;BME280;41452;42.780;23.116;2022-11-15T06:55:30;94803.47;;;3.00;100.00
55590;BME280;41452;42.780;23.116;2022-11-15T06:57:56;94810.13;;;2.95;100.00
55590;BME280;41452;42.780;23.116;2022-11-15T07:00:22;94732.47;;;2.39;100.00
55590;BME280;41452;42.780;23.116;2022-11-15T07:02:48;94819.41;;;2.89;100.00
55590;BME280;41452;42.780;23.116;2022-11-15T07:05:14;94797.66;;;2.67;100.00
55590;BME280;41452;42.780;23.116;2022-11-15T07:07:40;94823.53;;;2.75;100.00
55590;BME280;41452;42.780;23.116;2022-11-15T07:10:07;94830.47;;;2.83;100.00
55590;BME280;41452;42.780;23.116;2022-11-15T07:12:32;94819.72;;;2.63;100.00
55590;BME280;41452;42.780;23.116;2022-11-15T07:14:58;94812.94;;;2.54;100.00
55590;BME280;41452;42.780;23.116;2022-11-15T07:17:23;94823.28;;;2.22;100.00
55590;BME280;41452;42.780;23.116;2022-11-15T07:19:49;94801.53;;;2.32;100.00
55590;BME280;41452;42.780;23.116;2022-11-15T07:22:14;94823.78;;;2.57;100.00
55590;BME280;41452;42.780;23.116;2022-11-15T07:24:40;94793.84;;;2.46;100.00
55590;BME280;41452;42.780;23.116;2022-11-15T07:27:05;94815.47;;;2.70;100.00
55590;BME280;41452;42.780;23.116;2022-11-15T07:29:30;94744.50;;;2.32;100.00
55590;BME280;41452;42.780;23.116;2022-11-15T07:31:56;94822.00;;;2.89;100.00
55590;BME280;41452;42.780;23.116;2022-11-15T07:34:21;94816.97;;;2.88;100.00
55590;BME280;41452;42.780;23.116;2022-11-15T07:36:47;94820.56;;;2.87;100.00
55590;BME280;41452;42.780;23.116;2022-11-15T07:39:12;94831.06;;;2.62;100.00
55590;BME280;41452;42.780;23.116;2022-11-15T07:41:39;94828.59;;;2.69;100.00
55590;BME280;41452;42.780;23.116;2022-11-15T07:44:05;94800.44;;;2.57;100.00
55590;BME280;41452;42.780;23.116;2022-11-15T07:46:31;94829.19;;;2.79;100.00
55590;BME280;41452;42.780;23.116;2022-11-15T07:48:56;94817.81;;;2.88;100.00
55590;BME280;41452;42.780;23.116;2022-11-15T07:51:21;94826.56;;;2.87;100.00
55590;BME280;41452;42.780;23.116;2022-11-15T07:53:47;94817.19;;;2.86;100.00
55590;BME280;41452;42.780;23.116;2022-11-15T07:56:12;94804.06;;;2.79;100.00
55590;BME280;41452;42.780;23.116;2022-11-15T07:58:38;94803.91;;;2.81;100.00
55590;BME280;41452;42.780;23.116;2022-11-15T08:01:04;94814.22;;;2.89;100.00
55590;BME280;41452;42.780;23.116;2022-11-15T08:03:30;94757.84;;;2.52;100.00
55590;BME280;41452;42.780;23.116;2022-11-15T08:05:55;94808.06;;;2.90;100.00
55590;BME280;41452;42.780;23.116;2022-11-15T08:08:21;94807.34;;;2.96;100.00
55590;BME280;41452;42.780;23.116;2022-11-15T08:10:47;94793.94;;;2.93;100.00
55590;BME280;41452;42.780;23.116;2022-11-15T08:13:13;94736.78;;;2.55;100.00
55590;BME280;41452;42.780;23.116;2022-11-15T08:15:38;94795.56;;;2.94;100.00
55590;BME280;41452;42.780;23.116;2022-11-15T08:18:09;94800.63;;;2.87;100.00
55590;BME280;41452;42.780;23.116;2022-11-15T08:20:35;94780.63;;;2.64;100.00
55590;BME280;41452;42.780;23.116;2022-11-15T08:23:03;94802.28;;;2.80;100.00
55590;BME280;41452;42.780;23.116;2022-11-15T08:25:31;94794.47;;;2.88;100.00
55590;BME280;41452;42.780;23.116;2022-11-15T08:27:59;94800.50;;;3.03;100.00
55590;BME280;41452;42.780;23.116;2022-11-15T08:30:25;94795.38;;;2.95;100.00
55590;BME280;41452;42.780;23.116;2022-11-15T08:32:51;94760.94;;;2.78;100.00
55590;BME280;41452;42.780;23.116;2022-11-15T08:35:18;94756.28;;;2.74;100.00
55590;BME280;41452;42.780;23.116;2022-11-15T08:37:44;94794.00;;;3.08;100.00
55590;BME280;41452;42.780;23.116;2022-11-15T08:40:10;94776.81;;;2.83;100.00
55590;BME280;41452;42.780;23.116;2022-11-15T08:42:35;94785.63;;;2.97;100.00
55590;BME280;41452;42.780;23.116;2022-11-15T08:45:01;94780.75;;;3.02;100.00
55590;BME280;41452;42.780;23.116;2022-11-15T08:47:26;94794.63;;;3.10;100.00
55590;BME280;41452;42.780;23.116;2022-11-15T08:49:52;94798.22;;;3.09;100.00
55590;BME280;41452;42.780;23.116;2022-11-15T08:52:17;94780.91;;;3.01;100.00
55590;BME280;41452;42.780;23.116;2022-11-15T08:54:43;94755.59;;;2.80;100.00
55590;BME280;41452;42.780;23.116;2022-11-15T08:57:08;94782.50;;;3.02;100.00
55590;BME280;41452;42.780;23.116;2022-11-15T08:59:35;94769.94;;;3.14;100.00
55590;BME280;41452;42.780;23.116;2022-11-15T09:02:00;94732.13;;;2.96;100.00
55590;BME280;41452;42.780;23.116;2022-11-15T09:04:26;94776.53;;;3.24;100.00
55590;BME280;41452;42.780;23.116;2022-11-15T09:06:51;94772.38;;;3.15;100.00
55590;BME280;41452;42.780;23.116;2022-11-15T09:09:17;94738.34;;;2.64;100.00
55590;BME280;41452;42.780;23.116;2022-11-15T09:11:42;94765.16;;;3.02;100.00
55590;BME280;41452;42.780;23.116;2022-11-15T09:14:10;94763.16;;;3.13;100.00
55590;BME280;41452;42.780;23.116;2022-11-15T09:16:36;94757.97;;;3.13;100.00
55590;BME280;41452;42.780;23.116;2022-11-15T09:19:01;94755.38;;;3.13;100.00
55590;BME280;41452;42.780;23.116;2022-11-15T09:21:28;94754.78;;;3.26;100.00
55590;BME280;41452;42.780;23.116;2022-11-15T09:23:54;94741.97;;;3.24;100.00
55590;BME280;41452;42.780;23.116;2022-11-15T09:26:19;94747.47;;;3.06;100.00
55590;BME280;41452;42.780;23.116;2022-11-15T09:28:44;94739.09;;;2.96;100.00
55590;BME280;41452;42.780;23.116;2022-11-15T09:31:10;94736.03;;;2.92;100.00
55590;BME280;41452;42.780;23.116;2022-11-15T09:33:35;94732.75;;;2.98;100.00
55590;BME280;41452;42.780;23.116;2022-11-15T09:36:05;94707.81;;;2.97;100.00
55590;BME280;41452;42.780;23.116;2022-11-15T09:38:32;94720.47;;;3.15;100.00
55590;BME280;41452;42.780;23.116;2022-11-15T10:11:51;94614.88;;;3.31;100.00
55590;BME280;41452;42.780;23.116;2022-11-15T10:14:25;94685.34;;;3.72;100.00
55590;BME280;41452;42.780;23.116;2022-11-15T10:19:38;94677.13;;;3.54;100.00
55590;BME280;41452;42.780;23.116;2022-11-15T10:24:43;94666.47;;;3.64;100.00
55590;BME280;41452;42.780;23.116;2022-11-15T10:27:16;94672.03;;;3.75;100.00
55590;BME280;41452;42.780;23.116;2022-11-15T10:29:46;94660.19;;;3.73;100.00
55590;BME280;41452;42.780;23.116;2022-11-15T10:32:13;94648.97;;;3.87;100.00
55590;BME280;41452;42.780;23.116;2022-11-15T10:34:39;94610.31;;;3.63;100.00
55590;BME280;41452;42.780;23.116;2022-11-15T10:37:04;94647.56;;;3.85;100.00
55590;BME280;41452;42.780;23.116;2022-11-15T10:39:30;94635.03;;;3.73;100.00
55590;BME280;41452;42.780;23.116;2022-11-15T10:41:55;94644.34;;;3.83;100.00
55590;BME280;41452;42.780;23.116;2022-11-15T10:44:28;94625.25;;;3.75;100.00
55590;BME280;41452;42.780;23.116;2022-11-15T10:49:24;94627.38;;;3.87;100.00
55590;BME280;41452;42.780;23.116;2022-11-15T10:51:55;94626.41;;;3.88;100.00
55590;BME280;41452;42.780;23.116;2022-11-15T10:57:27;94576.78;;;3.83;100.00
55590;BME280;41452;42.780;23.116;2022-11-15T11:00:00;94615.69;;;4.12;100.00
55590;BME280;41452;42.780;23.116;2022-11-15T11:05:01;94603.50;;;4.13;100.00
55590;BME280;41452;42.780;23.116;2022-11-15T11:07:32;94603.44;;;4.28;100.00
55590;BME280;41452;42.780;23.116;2022-11-15T11:10:01;94530.75;;;3.76;100.00
55590;BME280;41452;42.780;23.116;2022-11-15T11:12:29;94603.94;;;4.16;100.00
55590;BME280;41452;42.780;23.116;2022-11-15T11:14:57;94578.31;;;4.13;100.00
55590;BME280;41452;42.780;23.116;2022-11-15T11:25:18;94581.84;;;4.49;100.00
55590;BME280;41452;42.780;23.116;2022-11-15T11:33:33;94560.31;;;4.55;100.00
55590;BME280;41452;42.780;23.116;2022-11-15T11:38:42;94542.72;;;4.57;100.00
55590;BME280;41452;42.780;23.116;2022-11-15T11:41:20;94553.63;;;4.74;100.00
55590;BME280;41452;42.780;23.116;2022-11-15T11:49:15;94486.91;;;4.60;100.00
55590;BME280;41452;42.780;23.116;2022-11-15T11:51:47;94532.56;;;4.97;100.00
55590;BME280;41452;42.780;23.116;2022-11-15T11:54:20;94535.38;;;4.95;100.00
55590;BME280;41452;42.780;23.116;2022-11-15T11:56:48;94530.16;;;4.95;100.00
55590;BME280;41452;42.780;23.116;2022-11-15T12:01:51;94456.94;;;4.70;100.00
55590;BME280;41452;42.780;23.116;2022-11-15T12:04:29;94508.88;;;5.13;100.00
55590;BME280;41452;42.780;23.116;2022-11-15T12:06:59;94503.81;;;5.05;100.00
55590;BME280;41452;42.780;23.116;2022-11-15T12:17:12;94493.53;;;5.32;100.00
55590;BME280;41452;42.780;23.116;2022-11-15T12:19:41;94450.78;;;5.13;100.00
55590;BME280;41452;42.780;23.116;2022-11-15T12:24:45;94494.69;;;5.23;100.00
55590;BME280;41452;42.780;23.116;2022-11-15T12:30:04;94481.81;;;5.56;100.00
55590;BME280;41452;42.780;23.116;2022-11-15T12:32:39;94481.56;;;5.44;100.00
55590;BME280;41452;42.780;23.116;2022-11-15T12:35:38;94484.03;;;5.66;100.00
55590;BME280;41452;42.780;23.116;2022-11-15T12:38:10;94415.94;;;5.14;100.00
55590;BME280;41452;42.780;23.116;2022-11-15T12:40:37;94452.75;;;5.59;100.00
55590;BME280;41452;42.780;23.116;2022-11-15T12:45:38;94440.94;;;5.63;100.00
55590;BME280;41452;42.780;23.116;2022-11-15T12:50:59;94447.59;;;5.93;100.00
55590;BME280;41452;42.780;23.116;2022-11-15T13:06:50;94442.78;;;5.83;100.00
55590;BME280;41452;42.780;23.116;2022-11-15T13:12:10;94426.59;;;6.21;100.00
55590;BME280;41452;42.780;23.116;2022-11-15T13:14:44;94415.16;;;6.28;100.00
55590;BME280;41452;42.780;23.116;2022-11-15T13:17:30;94418.75;;;6.34;100.00
55590;BME280;41452;42.780;23.116;2022-11-15T13:22:39;94417.75;;;6.49;100.00
55590;BME280;41452;42.780;23.116;2022-11-15T13:25:41;94414.75;;;6.45;99.94
55590;BME280;41452;42.780;23.116;2022-11-15T13:30:55;94415.97;;;6.22;100.00
55590;BME280;41452;42.780;23.116;2022-11-15T13:33:31;94412.97;;;6.25;100.00
55590;BME280;41452;42.780;23.116;2022-11-15T13:36:00;94418.16;;;6.45;100.00
55590;BME280;41452;42.780;23.116;2022-11-15T13:40:56;94413.28;;;6.69;98.57
55590;BME280;41452;42.780;23.116;2022-11-15T13:46:44;94414.47;;;6.80;97.67
55590;BME280;41452;42.780;23.116;2022-11-15T13:49:05;94414.28;;;6.81;97.86
55590;BME280;41452;42.780;23.116;2022-11-15T13:54:25;94415.13;;;6.69;97.91
55590;BME280;41452;42.780;23.116;2022-11-15T13:56:59;94412.09;;;6.65;98.04
55590;BME280;41452;42.780;23.116;2022-11-15T13:59:30;94410.28;;;6.72;97.98
55590;BME280;41452;42.780;23.116;2022-11-15T14:01:58;94382.63;;;6.58;97.81
55590;BME280;41452;42.780;23.116;2022-11-15T14:04:27;94411.47;;;6.76;96.98
55590;BME280;41452;42.780;23.116;2022-11-15T14:07:00;94402.25;;;6.74;96.75
55590;BME280;41452;42.780;23.116;2022-11-15T14:09:39;94344.53;;;6.43;96.84
55590;BME280;41452;42.780;23.116;2022-11-15T14:12:39;94410.81;;;6.94;96.10
55590;BME280;41452;42.780;23.116;2022-11-15T14:17:50;94401.59;;;6.92;95.98
55590;BME280;41452;42.780;23.116;2022-11-15T14:20:35;94404.03;;;6.80;96.07
55590;BME280;41452;42.780;23.116;2022-11-15T14:23:04;94388.19;;;6.75;95.59
55590;BME280;41452;42.780;23.116;2022-11-15T14:25:32;94404.44;;;6.83;96.13
55590;BME280;41452;42.780;23.116;2022-11-15T14:30:46;94397.63;;;6.82;96.29
55590;BME280;41452;42.780;23.116;2022-11-15T14:35:55;94403.84;;;6.81;96.38
55590;BME280;41452;42.780;23.116;2022-11-15T14:38:23;94398.81;;;6.80;96.41
55590;BME280;41452;42.780;23.116;2022-11-15T14:40:48;94401.44;;;6.80;96.04
55590;BME280;41452;42.780;23.116;2022-11-15T14:43:14;94393.38;;;6.81;96.92
55590;BME280;41452;42.780;23.116;2022-11-15T14:45:39;94388.75;;;6.83;96.35
55590;BME280;41452;42.780;23.116;2022-11-15T14:48:05;94388.75;;;6.83;96.46
55590;BME280;41452;42.780;23.116;2022-11-15T14:50:32;94387.78;;;6.84;96.49
55590;BME280;41452;42.780;23.116;2022-11-15T14:52:58;94382.34;;;6.86;95.74
55590;BME280;41452;42.780;23.116;2022-11-15T14:55:26;94384.22;;;6.59;97.09
55590;BME280;41452;42.780;23.116;2022-11-15T14:57:53;94380.78;;;6.65;97.38
55590;BME280;41452;42.780;23.116;2022-11-15T15:00:19;94386.22;;;6.70;97.13
55590;BME280;41452;42.780;23.116;2022-11-15T15:02:46;94370.53;;;6.70;96.81
55590;BME280;41452;42.780;23.116;2022-11-15T15:05:23;94374.97;;;6.63;96.50
55590;BME280;41452;42.780;23.116;2022-11-15T15:07:49;94354.50;;;6.60;96.67
55590;BME280;41452;42.780;23.116;2022-11-15T15:10:16;94369.34;;;6.66;96.19
55590;BME280;41452;42.780;23.116;2022-11-15T15:12:42;94366.13;;;6.64;96.29
55590;BME280;41452;42.780;23.116;2022-11-15T15:15:16;94362.13;;;6.61;95.90
55590;BME280;41452;42.780;23.116;2022-11-15T15:17:43;94367.38;;;6.55;96.29
55590;BME280;41452;42.780;23.116;2022-11-15T15:20:09;94355.75;;;6.37;96.10
55590;BME280;41452;42.780;23.116;2022-11-15T15:22:35;94360.97;;;6.44;96.05
55590;BME280;41452;42.780;23.116;2022-11-15T15:25:01;94338.13;;;6.26;96.02
55590;BME280;41452;42.780;23.116;2022-11-15T15:27:27;94354.16;;;6.36;96.07
55590;BME280;41452;42.780;23.116;2022-11-15T15:29:53;94355.97;;;6.29;96.04
55590;BME280;41452;42.780;23.116;2022-11-15T15:32:18;94365.41;;;6.23;95.74
55590;BME280;41452;42.780;23.116;2022-11-15T15:34:43;94369.41;;;6.19;95.26
55590;BME280;41452;42.780;23.116;2022-11-15T15:37:30;94365.63;;;6.15;95.68
55590;BME280;41452;42.780;23.116;2022-11-15T15:39:56;94365.81;;;6.07;95.63
55590;BME280;41452;42.780;23.116;2022-11-15T15:42:22;94301.63;;;5.59;94.93
55590;BME280;41452;42.780;23.116;2022-11-15T15:44:49;94364.63;;;5.96;95.28
55590;BME280;41452;42.780;23.116;2022-11-15T15:47:21;94357.38;;;5.78;94.99